Time;durP1;ratioP1;P1;durP2;ratioP2;P2;SDS_P1;SDS_P2;PMS_P1;PMS_P2;Temp;Humidity;BMP_temperature;BMP_pressure;BME280_temperature;BME280_humidity;BME280_pressure;Samples;Min_cycle;Max_cycle;Signal;HPM_P1;HPM_P2
2023/11/21 00:01:17;;;;;;;57.70;29.63;;;;;;;;;;4401311;32;318441;-83
2023/11/21 00:03:45;;;;;;;49.33;28.50;;;;;;;;;;4388929;32;318420;-83
2023/11/21 00:06:12;;;;;;;48.13;27.87;;;;;;;;;;4400472;32;317689;-83
2023/11/21 00:08:40;;;;;;;51.10;27.47;;;;;;;;;;4388908;32;347962;-84
2023/11/21 00:11:07;;;;;;;54.43;28.13;;;;;;;;;;4400936;32;317976;-83
2023/11/21 00:13:37;;;;;;;53.37;29.43;;;;;;;;;;4388586;32;320250;-83
2023/11/21 00:16:05;;;;;;;59.17;29.13;;;;;;;;;;4403389;32;318181;-83
2023/11/21 00:18:33;;;;;;;51.43;30.27;;;;;;;;;;4404885;32;317959;-83
2023/11/21 00:21:00;;;;;;;57.93;28.90;;;;;;;;;;4392834;32;419872;-83
2023/11/21 00:23:28;;;;;;;52.10;30.90;;;;;;;;;;4405790;32;318815;-83
2023/11/21 00:25:55;;;;;;;50.13;30.47;;;;;;;;;;4394125;32;318212;-83
2023/11/21 00:28:23;;;;;;;58.47;28.83;;;;;;;;;;4406090;32;317812;-83
2023/11/21 00:30:52;;;;;;;53.70;30.07;;;;;;;;;;4395701;32;317698;-83
2023/11/21 00:33:19;;;;;;;76.07;40.50;;;;;;;;;;4406043;32;317948;-83
2023/11/21 00:35:47;;;;;;;98.13;43.03;;;;;;;;;;4393354;32;318955;-83
2023/11/21 00:38:14;;;;;;;90.13;42.43;;;;;;;;;;4406073;32;318437;-85
2023/11/21 00:40:42;;;;;;;73.30;39.43;;;;;;;;;;4393943;32;318528;-83
2023/11/21 00:43:09;;;;;;;87.13;42.53;;;;;;;;;;4405519;32;317875;-83
2023/11/21 00:45:37;;;;;;;81.97;44.50;;;;;;;;;;4395280;32;324539;-83
2023/11/21 00:48:08;;;;;;;82.30;43.67;;;;;;;;;;4405524;32;317657;-83
2023/11/21 00:50:35;;;;;;;84.97;45.07;;;;;;;;;;4393738;32;318387;-83
2023/11/21 00:53:03;;;;;;;89.13;45.27;;;;;;;;;;4404595;32;318167;-83
2023/11/21 00:55:30;;;;;;;98.30;53.83;;;;;;;;;;4406166;32;318413;-83
2023/11/21 00:57:58;;;;;;;120.23;56.80;;;;;;;;;;4393846;32;348714;-83
2023/11/21 01:00:25;;;;;;;111.97;58.77;;;;;;;;;;4406087;32;318989;-83
2023/11/21 01:02:53;;;;;;;104.83;56.23;;;;;;;;;;4393019;32;319467;-83
2023/11/21 01:05:22;;;;;;;99.90;53.27;;;;;;;;;;4405819;32;319399;-83
2023/11/21 01:07:50;;;;;;;102.60;54.00;;;;;;;;;;4395303;32;318098;-83
2023/11/21 01:10:17;;;;;;;105.17;55.23;;;;;;;;;;4404631;32;319113;-83
2023/11/21 01:12:45;;;;;;;115.73;54.27;;;;;;;;;;4395102;32;319034;-83
2023/11/21 01:15:13;;;;;;;99.73;50.80;;;;;;;;;;4404834;32;319042;-83
2023/11/21 01:17:40;;;;;;;97.13;50.00;;;;;;;;;;4392913;32;319012;-83
2023/11/21 01:20:11;;;;;;;83.40;48.97;;;;;;;;;;4405417;32;318068;-83
2023/11/21 01:22:41;;;;;;;97.00;49.13;;;;;;;;;;4391438;32;318604;-83
2023/11/21 01:25:08;;;;;;;104.63;55.13;;;;;;;;;;4404933;32;318022;-83
2023/11/21 01:27:36;;;;;;;111.17;57.40;;;;;;;;;;4390011;32;355157;-84
2023/11/21 01:30:07;;;;;;;112.20;58.37;;;;;;;;;;4401745;32;335125;-83
2023/11/21 01:32:35;;;;;;;102.68;54.75;;;;;;;;;;4401085;32;318896;-83
2023/11/21 01:35:02;;;;;;;103.20;54.70;;;;;;;;;;4402242;32;318850;-83
2023/11/21 01:37:30;;;;;;;95.13;51.83;;;;;;;;;;4403094;32;319116;-83
2023/11/21 01:40:01;;;;;;;82.50;47.43;;;;;;;;;;4392860;32;318001;-83
2023/11/21 01:42:29;;;;;;;97.30;51.10;;;;;;;;;;4401444;32;318705;-83
2023/11/21 01:44:56;;;;;;;103.47;55.50;;;;;;;;;;4392833;32;318271;-83
2023/11/21 01:47:24;;;;;;;103.10;55.97;;;;;;;;;;4400100;32;319686;-83
2023/11/21 01:49:51;;;;;;;98.73;53.90;;;;;;;;;;4392669;32;319349;-83
2023/11/21 01:52:19;;;;;;;92.43;48.53;;;;;;;;;;4402723;32;323394;-83
2023/11/21 01:54:47;;;;;;;67.60;37.37;;;;;;;;;;4392301;32;318257;-83
2023/11/21 01:57:16;;;;;;;66.40;37.13;;;;;;;;;;4402812;32;318165;-83
2023/11/21 01:59:45;;;;;;;84.80;42.40;;;;;;;;;;4392494;32;318011;-83
2023/11/21 02:02:13;;;;;;;64.67;34.20;;;;;;;;;;4402901;32;317368;-83
2023/11/21 02:04:40;;;;;;;51.53;30.50;;;;;;;;;;4389693;32;318516;-83
2023/11/21 02:07:08;;;;;;;48.37;29.07;;;;;;;;;;4401582;32;322289;-83
2023/11/21 02:09:38;;;;;;;48.30;25.80;;;;;;;;;;4391900;32;318525;-83
2023/11/21 02:12:06;;;;;;;45.70;25.23;;;;;;;;;;4401855;32;318004;-83
2023/11/21 02:14:36;;;;;;;40.10;23.40;;;;;;;;;;4401131;32;318985;-84
2023/11/21 02:17:04;;;;;;;37.77;22.70;;;;;;;;;;4389525;32;417122;-83
2023/11/21 02:19:32;;;;;;;36.07;20.40;;;;;;;;;;4402475;32;317930;-83
2023/11/21 02:22:04;;;;;;;32.27;19.03;;;;;;;;;;4389457;32;417292;-83
2023/11/21 02:24:33;;;;;;;37.07;20.83;;;;;;;;;;4402621;32;317894;-83
2023/11/21 02:27:01;;;;;;;37.83;20.60;;;;;;;;;;4388172;32;416844;-83
2023/11/21 02:29:28;;;;;;;35.90;20.93;;;;;;;;;;4400995;32;319083;-83
2023/11/21 02:31:56;;;;;;;42.27;22.27;;;;;;;;;;4390571;32;353467;-83
2023/11/21 02:34:25;;;;;;;34.13;22.33;;;;;;;;;;4401044;32;318490;-84
2023/11/21 02:36:53;;;;;;;32.70;21.70;;;;;;;;;;4390427;32;318528;-83
2023/11/21 02:39:22;;;;;;;42.63;22.27;;;;;;;;;;4400952;32;318031;-83
2023/11/21 02:41:51;;;;;;;35.13;22.23;;;;;;;;;;4391327;32;318146;-84
2023/11/21 02:44:19;;;;;;;32.40;21.63;;;;;;;;;;4402377;32;317816;-84
2023/11/21 02:46:46;;;;;;;40.23;22.23;;;;;;;;;;4390629;32;317979;-84
2023/11/21 02:49:14;;;;;;;39.07;23.60;;;;;;;;;;4400138;32;359138;-84
2023/11/21 02:51:41;;;;;;;39.77;24.90;;;;;;;;;;4391149;32;317959;-84
2023/11/21 02:54:10;;;;;;;48.33;26.33;;;;;;;;;;4402097;32;317876;-84
2023/11/21 02:56:36;;;;;;;40.97;24.30;;;;;;;;;;4388621;32;318006;-84
2023/11/21 02:59:05;;;;;;;39.37;23.57;;;;;;;;;;4400744;32;318872;-84
2023/11/21 03:01:32;;;;;;;35.67;21.37;;;;;;;;;;4402711;32;317970;-84
2023/11/21 03:04:00;;;;;;;35.00;20.93;;;;;;;;;;4390266;32;418173;-84
2023/11/21 03:06:28;;;;;;;33.53;19.30;;;;;;;;;;4411144;32;318089;-83
2023/11/21 03:08:55;;;;;;;36.90;21.10;;;;;;;;;;4400237;32;317965;-84
2023/11/21 03:11:23;;;;;;;39.00;23.07;;;;;;;;;;4405445;32;318311;-83
2023/11/21 03:13:50;;;;;;;44.70;25.23;;;;;;;;;;4387619;32;318067;-83
2023/11/21 03:16:20;;;;;;;43.20;24.60;;;;;;;;;;4400720;32;318323;-84
2023/11/21 03:18:48;;;;;;;40.50;22.87;;;;;;;;;;4389935;32;318739;-84
2023/11/21 03:21:15;;;;;;;41.13;22.77;;;;;;;;;;4400421;32;318035;-83
2023/11/21 03:23:43;;;;;;;42.77;23.83;;;;;;;;;;4389400;32;317899;-84
2023/11/21 03:26:13;;;;;;;52.03;28.73;;;;;;;;;;4399749;32;318289;-84
2023/11/21 03:28:41;;;;;;;53.87;28.70;;;;;;;;;;4390212;32;317948;-84
2023/11/21 03:31:08;;;;;;;52.37;28.13;;;;;;;;;;4401508;32;318131;-84
2023/11/21 03:33:37;;;;;;;59.63;28.20;;;;;;;;;;4390812;32;318064;-84
2023/11/21 03:36:07;;;;;;;43.57;26.23;;;;;;;;;;4400804;32;318725;-84
2023/11/21 03:38:35;;;;;;;40.13;25.87;;;;;;;;;;4390782;32;318122;-84
2023/11/21 03:41:02;;;;;;;41.07;26.00;;;;;;;;;;4400536;32;318089;-83
2023/11/21 03:43:30;;;;;;;44.13;26.67;;;;;;;;;;4401439;32;317849;-83
2023/11/21 03:45:58;;;;;;;38.70;24.80;;;;;;;;;;4391177;32;318064;-84
2023/11/21 03:48:25;;;;;;;36.10;22.90;;;;;;;;;;4400486;32;317857;-84
2023/11/21 03:50:54;;;;;;;37.17;24.03;;;;;;;;;;4390224;32;318636;-84
2023/11/21 03:53:22;;;;;;;45.43;24.90;;;;;;;;;;4401211;32;318013;-84
2023/11/21 03:55:49;;;;;;;45.80;26.03;;;;;;;;;;4388432;32;318842;-84
2023/11/21 03:58:17;;;;;;;41.03;26.10;;;;;;;;;;4400387;32;317827;-83
2023/11/21 04:00:44;;;;;;;50.70;27.30;;;;;;;;;;4390819;32;317997;-83
2023/11/21 04:03:13;;;;;;;51.20;28.90;;;;;;;;;;4401483;32;318019;-83
2023/11/21 04:05:41;;;;;;;55.77;32.53;;;;;;;;;;4389464;32;318441;-83
2023/11/21 04:08:09;;;;;;;62.97;38.33;;;;;;;;;;4400232;32;321271;-83
2023/11/21 04:10:39;;;;;;;69.33;35.60;;;;;;;;;;4389759;32;318508;-84
2023/11/21 04:13:06;;;;;;;79.87;36.40;;;;;;;;;;4398934;32;318489;-84
2023/11/21 04:15:34;;;;;;;80.23;38.87;;;;;;;;;;4401155;32;317754;-84
2023/11/21 04:18:02;;;;;;;71.80;36.67;;;;;;;;;;4387977;32;416969;-84
2023/11/21 04:20:29;;;;;;;66.50;35.10;;;;;;;;;;4399691;32;317763;-84
2023/11/21 04:22:57;;;;;;;46.77;27.87;;;;;;;;;;4390710;32;318079;-84
2023/11/21 04:25:27;;;;;;;55.70;28.07;;;;;;;;;;4400312;32;318053;-83
2023/11/21 04:27:54;;;;;;;43.70;26.67;;;;;;;;;;4390253;32;318004;-83
2023/11/21 04:30:22;;;;;;;51.13;27.10;;;;;;;;;;4401384;32;318198;-83
2023/11/21 04:32:50;;;;;;;48.87;27.97;;;;;;;;;;4390794;32;318310;-83
2023/11/21 04:35:18;;;;;;;59.37;29.23;;;;;;;;;;4400837;32;317987;-84
2023/11/21 04:37:45;;;;;;;52.53;28.63;;;;;;;;;;4388608;32;318089;-84
2023/11/21 04:40:13;;;;;;;48.47;28.57;;;;;;;;;;4400327;32;318243;-83
2023/11/21 04:42:42;;;;;;;51.33;28.37;;;;;;;;;;4390330;32;317990;-83
2023/11/21 04:45:11;;;;;;;46.50;28.67;;;;;;;;;;4398184;32;318794;-83
2023/11/21 04:47:39;;;;;;;43.13;26.90;;;;;;;;;;4390813;32;318196;-83
2023/11/21 04:50:07;;;;;;;52.53;31.00;;;;;;;;;;4400249;32;318366;-83
2023/11/21 04:52:34;;;;;;;44.30;29.50;;;;;;;;;;4393400;32;318559;-83
2023/11/21 04:55:02;;;;;;;48.73;28.00;;;;;;;;;;4400998;32;318544;-83
2023/11/21 04:57:29;;;;;;;49.70;29.87;;;;;;;;;;4401139;32;317961;-83
2023/11/21 04:59:58;;;;;;;46.80;29.17;;;;;;;;;;4390517;32;327749;-83
2023/11/21 05:02:26;;;;;;;47.07;27.97;;;;;;;;;;4401440;32;318498;-84
2023/11/21 05:04:56;;;;;;;44.73;26.67;;;;;;;;;;4392837;32;318146;-83
2023/11/21 05:07:23;;;;;;;45.73;30.80;;;;;;;;;;4402977;32;318089;-83
2023/11/21 05:09:51;;;;;;;49.80;29.60;;;;;;;;;;4393729;32;318040;-84
2023/11/21 05:12:18;;;;;;;48.37;30.13;;;;;;;;;;4402983;32;317863;-84
2023/11/21 05:14:46;;;;;;;57.47;29.13;;;;;;;;;;4392997;32;318607;-84
2023/11/21 05:17:15;;;;;;;50.13;34.50;;;;;;;;;;4403760;32;317945;-84
2023/11/21 05:19:46;;;;;;;71.83;36.33;;;;;;;;;;4392854;32;318267;-84
2023/11/21 05:22:13;;;;;;;58.83;36.13;;;;;;;;;;4401873;32;337639;-84
2023/11/21 05:24:40;;;;;;;52.07;29.67;;;;;;;;;;4389807;32;318558;-84
2023/11/21 05:27:09;;;;;;;52.00;26.50;;;;;;;;;;4403543;32;318410;-84
2023/11/21 05:29:37;;;;;;;49.53;29.43;;;;;;;;;;4391457;32;318292;-85
2023/11/21 05:32:05;;;;;;;45.87;26.40;;;;;;;;;;4402129;32;318295;-84
2023/11/21 05:34:34;;;;;;;43.93;26.90;;;;;;;;;;4401650;32;318282;-84
2023/11/21 05:37:02;;;;;;;44.87;28.27;;;;;;;;;;4390179;32;417277;-86
2023/11/21 05:39:29;;;;;;;56.00;33.60;;;;;;;;;;4402592;32;347284;-86
2023/11/21 05:41:57;;;;;;;60.83;34.37;;;;;;;;;;4390847;32;318252;-87
2023/11/21 05:44:25;;;;;;;61.37;36.73;;;;;;;;;;4402318;32;318379;-84
2023/11/21 05:46:52;;;;;;;66.33;36.27;;;;;;;;;;4391456;32;318055;-87
2023/11/21 05:49:21;;;;;;;67.57;39.17;;;;;;;;;;4402889;32;318288;-84
2023/11/21 05:51:53;;;;;;;73.60;41.43;;;;;;;;;;4392090;32;318088;-86
2023/11/21 05:54:21;;;;;;;65.13;37.70;;;;;;;;;;4403130;32;318184;-84
2023/11/21 05:56:49;;;;;;;68.90;38.20;;;;;;;;;;4391922;32;318428;-86
2023/11/21 05:59:16;;;;;;;73.63;39.97;;;;;;;;;;4402941;32;318391;-84
2023/11/21 06:01:45;;;;;;;98.23;50.23;;;;;;;;;;4391249;32;318399;-85
2023/11/21 06:04:13;;;;;;;111.40;51.60;;;;;;;;;;4402439;32;318286;-85
2023/11/21 06:06:40;;;;;;;105.80;53.63;;;;;;;;;;4389420;32;320127;-86
2023/11/21 06:09:11;;;;;;;98.90;54.40;;;;;;;;;;4401344;32;319675;-84
2023/11/21 06:11:39;;;;;;;108.90;55.53;;;;;;;;;;4391676;32;319328;-84
2023/11/21 06:14:08;;;;;;;104.93;55.53;;;;;;;;;;4399550;32;319212;-84
2023/11/21 06:16:35;;;;;;;106.20;57.80;;;;;;;;;;4388893;32;379470;-86
2023/11/21 06:19:05;;;;;;;109.90;57.10;;;;;;;;;;4400531;32;319014;-84
2023/11/21 06:21:33;;;;;;;109.60;55.27;;;;;;;;;;4400222;32;319257;-84
2023/11/21 06:24:01;;;;;;;117.17;58.90;;;;;;;;;;4385314;32;420763;-85
2023/11/21 06:26:35;;;;;;;102.03;57.07;;;;;;;;;;4399778;32;319049;-85
2023/11/21 06:29:08;;;;;;;114.90;60.77;;;;;;;;;;4395083;32;389398;-85
2023/11/21 06:31:36;;;;;;;149.57;64.97;;;;;;;;;;4389925;32;319519;-84
2023/11/21 06:34:04;;;;;;;119.87;59.80;;;;;;;;;;4405546;32;319240;-85
2023/11/21 06:36:31;;;;;;;112.87;62.67;;;;;;;;;;4400559;32;319181;-84
2023/11/21 06:39:01;;;;;;;121.63;63.57;;;;;;;;;;4390097;32;319269;-84
2023/11/21 06:41:38;;;;;;;122.30;65.20;;;;;;;;;;4400284;32;319170;-86
2023/11/21 06:44:06;;;;;;;128.57;69.73;;;;;;;;;;4387143;32;418288;-85
2023/11/21 06:46:34;;;;;;;112.97;65.90;;;;;;;;;;4399720;32;318850;-85
2023/11/21 06:49:02;;;;;;;118.77;70.13;;;;;;;;;;4388640;32;389263;-84
2023/11/21 06:51:29;;;;;;;110.23;63.30;;;;;;;;;;4402293;32;319174;-84
2023/11/21 06:53:56;;;;;;;119.97;66.93;;;;;;;;;;4389102;32;319031;-83
2023/11/21 06:56:24;;;;;;;107.83;65.73;;;;;;;;;;4402533;32;319281;-82
2023/11/21 06:58:55;;;;;;;113.63;64.60;;;;;;;;;;4392613;32;319272;-83
2023/11/21 07:01:23;;;;;;;111.07;65.37;;;;;;;;;;4406668;32;319196;-83
2023/11/21 07:03:52;;;;;;;128.90;67.03;;;;;;;;;;4394626;32;319224;-84
2023/11/21 07:06:22;;;;;;;114.13;66.77;;;;;;;;;;4402757;32;318937;-82
2023/11/21 07:08:53;;;;;;;119.10;66.53;;;;;;;;;;4387314;32;319309;-82
2023/11/21 07:11:22;;;;;;;131.50;69.87;;;;;;;;;;4399588;32;319405;-85
2023/11/21 07:13:50;;;;;;;118.00;70.60;;;;;;;;;;4389215;32;319662;-83
2023/11/21 07:16:22;;;;;;;109.63;66.73;;;;;;;;;;4401242;32;319065;-81
2023/11/21 07:18:50;;;;;;;110.20;63.00;;;;;;;;;;4401128;32;319173;-82
2023/11/21 07:21:17;;;;;;;115.20;65.83;;;;;;;;;;4389386;32;318665;-81
2023/11/21 07:23:45;;;;;;;118.27;69.33;;;;;;;;;;4400864;32;318798;-82
2023/11/21 07:26:12;;;;;;;127.10;73.53;;;;;;;;;;4388070;32;319237;-82
2023/11/21 07:28:40;;;;;;;127.07;75.07;;;;;;;;;;4400448;32;318868;-83
2023/11/21 07:31:08;;;;;;;117.03;65.40;;;;;;;;;;4389711;32;318995;-84
2023/11/21 07:33:39;;;;;;;113.00;67.43;;;;;;;;;;4403999;32;318948;-83
2023/11/21 07:36:08;;;;;;;111.83;66.10;;;;;;;;;;4388148;32;319133;-83
2023/11/21 07:38:36;;;;;;;107.27;63.17;;;;;;;;;;4399413;32;318940;-83
2023/11/21 07:41:03;;;;;;;103.50;58.20;;;;;;;;;;4388079;32;318614;-86
2023/11/21 07:43:34;;;;;;;103.20;59.33;;;;;;;;;;4399904;32;319208;-85
2023/11/21 07:46:03;;;;;;;101.33;50.10;;;;;;;;;;4389902;32;319139;-84
2023/11/21 07:48:34;;;;;;;89.87;53.43;;;;;;;;;;4399414;32;319054;-84
2023/11/21 07:51:04;;;;;;;106.37;57.20;;;;;;;;;;4389031;32;317926;-86
2023/11/21 07:53:33;;;;;;;109.20;65.30;;;;;;;;;;4400924;32;318946;-83
2023/11/21 07:56:03;;;;;;;93.37;57.13;;;;;;;;;;4388328;32;370528;-83
2023/11/21 07:58:33;;;;;;;105.33;61.43;;;;;;;;;;4399638;32;317826;-83
2023/11/21 08:01:02;;;;;;;87.50;52.57;;;;;;;;;;4389551;32;319090;-84
2023/11/21 08:03:33;;;;;;;81.50;45.03;;;;;;;;;;4399488;32;318117;-82
2023/11/21 08:06:05;;;;;;;74.40;41.93;;;;;;;;;;4386404;32;318126;-83
2023/11/21 08:08:33;;;;;;;65.57;39.43;;;;;;;;;;4399947;32;318092;-86
2023/11/21 08:11:03;;;;;;;58.70;34.77;;;;;;;;;;4379840;32;317796;-82
2023/11/21 08:13:31;;;;;;;59.53;34.73;;;;;;;;;;4410694;32;317807;-83
2023/11/21 08:16:02;;;;;;;54.63;38.10;;;;;;;;;;4389829;32;317906;-82
2023/11/21 08:18:30;;;;;;;56.20;35.73;;;;;;;;;;4399949;32;316675;-85
2023/11/21 08:20:59;;;;;;;49.43;31.73;;;;;;;;;;4389989;32;317882;-82
2023/11/21 08:23:29;;;;;;;53.10;31.23;;;;;;;;;;4399382;32;317875;-82
2023/11/21 08:25:57;;;;;;;44.37;30.53;;;;;;;;;;4388681;32;318137;-83
2023/11/21 08:28:25;;;;;;;47.43;30.60;;;;;;;;;;4398828;32;317861;-85
2023/11/21 08:30:54;;;;;;;49.43;27.83;;;;;;;;;;4399742;32;317611;-85
2023/11/21 08:33:21;;;;;;;47.73;29.47;;;;;;;;;;4386335;32;417698;-84
2023/11/21 08:35:50;;;;;;;43.10;26.20;;;;;;;;;;4399750;32;318002;-86
2023/11/21 08:38:17;;;;;;;37.40;25.67;;;;;;;;;;4391670;32;355751;-85
2023/11/21 08:40:46;;;;;;;43.70;24.23;;;;;;;;;;4404005;32;317737;-83
2023/11/21 08:43:16;;;;;;;41.37;23.70;;;;;;;;;;4392308;32;317812;-85
2023/11/21 08:45:43;;;;;;;28.63;18.90;;;;;;;;;;4403992;32;316634;-84
2023/11/21 08:48:11;;;;;;;36.57;23.87;;;;;;;;;;4394553;32;317879;-85
2023/11/21 08:50:40;;;;;;;67.73;37.90;;;;;;;;;;4403447;32;317949;-86
2023/11/21 08:53:08;;;;;;;42.60;25.20;;;;;;;;;;4391009;32;316862;-87
2023/11/21 08:55:37;;;;;;;30.60;20.73;;;;;;;;;;4399491;32;317803;-85
2023/11/21 08:58:06;;;;;;;25.00;19.50;;;;;;;;;;4389917;32;317822;-84
2023/11/21 09:00:34;;;;;;;34.17;19.40;;;;;;;;;;4402784;32;316807;-84
2023/11/21 09:03:03;;;;;;;37.60;25.87;;;;;;;;;;4392954;32;317978;-84
2023/11/21 09:05:31;;;;;;;38.60;23.23;;;;;;;;;;4402090;32;318147;-85
2023/11/21 09:07:58;;;;;;;28.17;18.63;;;;;;;;;;4393120;32;317901;-85
2023/11/21 09:10:28;;;;;;;29.13;20.50;;;;;;;;;;4402444;32;318043;-84
2023/11/21 09:12:55;;;;;;;35.20;22.40;;;;;;;;;;4401623;32;317999;-84
2023/11/21 09:15:25;;;;;;;42.03;25.67;;;;;;;;;;4388775;32;418460;-84
2023/11/21 09:17:53;;;;;;;39.17;24.53;;;;;;;;;;4402921;32;317685;-83
2023/11/21 09:20:26;;;;;;;41.17;26.53;;;;;;;;;;4390439;32;328099;-83
2023/11/21 09:22:54;;;;;;;52.17;28.83;;;;;;;;;;4403381;32;318084;-87
2023/11/21 09:25:23;;;;;;;51.63;31.97;;;;;;;;;;4388695;32;388695;-84
2023/11/21 09:27:51;;;;;;;48.37;29.40;;;;;;;;;;4401972;32;317896;-83
2023/11/21 09:30:19;;;;;;;58.33;34.37;;;;;;;;;;4389930;32;317828;-83
2023/11/21 09:32:50;;;;;;;43.90;31.97;;;;;;;;;;4401894;32;318027;-82
2023/11/21 09:35:18;;;;;;;57.17;34.63;;;;;;;;;;4391621;32;356064;-84
2023/11/21 09:37:47;;;;;;;55.30;36.47;;;;;;;;;;4402668;32;337279;-83
2023/11/21 09:40:17;;;;;;;67.83;42.70;;;;;;;;;;4390806;32;341455;-84
2023/11/21 09:42:51;;;;;;;80.57;40.03;;;;;;;;;;4398082;32;318143;-85
2023/11/21 09:45:27;;;;;;;74.67;44.10;;;;;;;;;;4397043;32;318039;-84
2023/11/21 09:47:57;;;;;;;81.87;49.57;;;;;;;;;;4401864;32;317870;-85
2023/11/21 09:50:27;;;;;;;76.03;45.00;;;;;;;;;;4389886;32;387764;-85
2023/11/21 09:53:00;;;;;;;73.77;45.70;;;;;;;;;;4401302;32;317915;-83
2023/11/21 09:55:29;;;;;;;79.93;48.10;;;;;;;;;;4388237;32;417265;-82
2023/11/21 09:57:58;;;;;;;65.77;43.33;;;;;;;;;;4391210;32;317789;-83
2023/11/21 10:00:27;;;;;;;55.73;37.23;;;;;;;;;;4384408;32;317403;-90
2023/11/21 10:03:01;;;;;;;50.00;33.87;;;;;;;;;;4400940;32;317681;-86
2023/11/21 10:05:29;;;;;;;53.73;34.20;;;;;;;;;;4387161;32;416977;-82
2023/11/21 10:07:58;;;;;;;55.83;38.10;;;;;;;;;;4388757;32;318357;-83
2023/11/21 10:10:27;;;;;;;56.37;36.03;;;;;;;;;;4398920;32;317595;-86
2023/11/21 10:12:58;;;;;;;59.10;36.53;;;;;;;;;;4402030;32;317772;-83
2023/11/21 10:15:26;;;;;;;52.47;35.53;;;;;;;;;;4381228;32;388407;-85
2023/11/21 10:17:56;;;;;;;72.03;43.47;;;;;;;;;;4400358;32;316757;-85
2023/11/21 10:20:26;;;;;;;64.60;36.67;;;;;;;;;;4389075;32;388781;-87
2023/11/21 10:22:53;;;;;;;61.60;36.57;;;;;;;;;;4401784;32;317810;-85
2023/11/21 10:25:21;;;;;;;62.83;39.57;;;;;;;;;;4386784;32;418384;-85
2023/11/21 10:27:51;;;;;;;81.00;50.97;;;;;;;;;;4401561;32;317904;-84
2023/11/21 10:30:22;;;;;;;79.77;47.07;;;;;;;;;;4388128;32;323377;-84
2023/11/21 10:32:50;;;;;;;66.73;41.00;;;;;;;;;;4400982;32;316894;-82
2023/11/21 10:35:21;;;;;;;55.40;38.23;;;;;;;;;;4389614;32;316878;-85
2023/11/21 10:38:01;;;;;;;61.43;42.50;;;;;;;;;;4401902;32;317361;-86
2023/11/21 10:40:29;;;;;;;71.00;40.87;;;;;;;;;;4386830;32;417140;-84
2023/11/21 10:43:08;;;;;;;59.30;38.07;;;;;;;;;;4389336;32;332635;-86
2023/11/21 10:45:37;;;;;;;60.47;37.97;;;;;;;;;;4398749;32;318021;-83
2023/11/21 10:48:10;;;;;;;53.73;37.60;;;;;;;;;;4388715;32;317704;-87
2023/11/21 10:50:39;;;;;;;66.17;38.30;;;;;;;;;;4400450;32;317684;-83
2023/11/21 10:53:08;;;;;;;65.13;45.23;;;;;;;;;;4390511;32;317673;-86
2023/11/21 10:55:36;;;;;;;74.60;53.20;;;;;;;;;;4404845;32;317472;-81
2023/11/21 10:58:06;;;;;;;75.90;51.63;;;;;;;;;;4397142;32;317565;-79
2023/11/21 11:00:37;;;;;;;71.13;46.47;;;;;;;;;;4404128;32;316499;-83
2023/11/21 11:03:13;;;;;;;72.73;43.37;;;;;;;;;;4389360;32;320634;-84
2023/11/21 11:05:51;;;;;;;62.07;41.47;;;;;;;;;;4397116;32;316839;-84
2023/11/21 11:08:26;;;;;;;47.77;31.90;;;;;;;;;;4386366;32;316526;-86
2023/11/21 11:10:54;;;;;;;52.50;31.47;;;;;;;;;;4402716;32;317730;-86
2023/11/21 11:13:22;;;;;;;54.83;33.83;;;;;;;;;;4387268;32;417474;-86
2023/11/21 11:16:02;;;;;;;61.57;36.23;;;;;;;;;;4398632;32;318041;-83
2023/11/21 11:18:30;;;;;;;66.93;38.03;;;;;;;;;;4382239;32;420246;-85
2023/11/21 11:21:20;;;;;;;71.23;40.80;;;;;;;;;;4386211;32;318200;-86
2023/11/21 11:24:05;;;;;;;65.57;44.07;;;;;;;;;;4400530;32;317960;-81
2023/11/21 11:26:40;;;;;;;74.53;46.13;;;;;;;;;;4386841;32;418314;-84
2023/11/21 11:29:16;;;;;;;73.20;46.60;;;;;;;;;;4383727;32;317614;-81
2023/11/21 11:31:56;;;;;;;76.83;46.43;;;;;;;;;;4403206;32;318837;-84
2023/11/21 11:34:31;;;;;;;66.47;39.17;;;;;;;;;;4388098;32;419413;-92
2023/11/21 11:37:03;;;;;;;62.67;40.07;;;;;;;;;;4387950;32;317915;-83
2023/11/21 11:39:31;;;;;;;56.43;34.77;;;;;;;;;;4398852;32;317894;-80
2023/11/21 11:41:59;;;;;;;54.07;33.87;;;;;;;;;;4390044;32;317838;-79
2023/11/21 11:44:51;;;;;;;53.70;33.67;;;;;;;;;;4401066;32;317863;-86
2023/11/21 11:47:22;;;;;;;61.77;35.97;;;;;;;;;;4390365;32;317740;-85
2023/11/21 11:50:13;;;;;;;56.10;35.30;;;;;;;;;;4400265;32;317599;-85
2023/11/21 11:52:43;;;;;;;53.27;32.53;;;;;;;;;;4388050;32;418358;-82
2023/11/21 11:55:13;;;;;;;55.67;33.07;;;;;;;;;;4388696;32;318131;-80
2023/11/21 11:57:41;;;;;;;45.83;27.00;;;;;;;;;;4399906;32;317733;-84
2023/11/21 12:00:18;;;;;;;40.17;24.47;;;;;;;;;;4388458;32;317755;-84
2023/11/21 12:02:49;;;;;;;45.03;26.20;;;;;;;;;;4397213;32;317695;-82
2023/11/21 12:05:19;;;;;;;47.43;26.17;;;;;;;;;;4388788;32;318190;-83
2023/11/21 12:07:54;;;;;;;41.37;26.67;;;;;;;;;;4397002;32;318517;-84
2023/11/21 12:10:24;;;;;;;39.37;22.10;;;;;;;;;;4391407;32;417314;-84
2023/11/21 12:12:53;;;;;;;47.83;28.13;;;;;;;;;;4398191;32;317559;-84
2023/11/21 12:15:22;;;;;;;67.00;40.47;;;;;;;;;;4390149;32;317888;-81
2023/11/21 12:17:51;;;;;;;57.03;33.07;;;;;;;;;;4399124;32;317637;-82
2023/11/21 12:20:21;;;;;;;49.97;31.23;;;;;;;;;;4388322;32;330905;-83
2023/11/21 12:22:51;;;;;;;38.90;25.23;;;;;;;;;;4398967;32;317962;-81
2023/11/21 12:25:19;;;;;;;33.43;24.20;;;;;;;;;;4388642;32;318060;-83
2023/11/21 12:27:49;;;;;;;40.90;27.43;;;;;;;;;;4399075;32;317684;-82
2023/11/21 12:30:18;;;;;;;43.03;28.03;;;;;;;;;;4389587;32;318088;-83
2023/11/21 12:32:49;;;;;;;45.53;31.03;;;;;;;;;;4399052;32;317812;-82
2023/11/21 12:35:19;;;;;;;34.70;22.03;;;;;;;;;;4387680;32;335884;-83
2023/11/21 12:37:47;;;;;;;30.47;19.03;;;;;;;;;;4400466;32;317765;-84
2023/11/21 12:40:17;;;;;;;52.47;24.47;;;;;;;;;;4387052;32;317644;-82
2023/11/21 12:42:46;;;;;;;27.73;17.27;;;;;;;;;;4400672;32;317966;-82
2023/11/21 12:45:25;;;;;;;28.40;17.33;;;;;;;;;;4390157;32;317919;-83
2023/11/21 12:47:56;;;;;;;29.23;15.60;;;;;;;;;;4400354;32;317732;-81
2023/11/21 12:50:28;;;;;;;25.50;15.33;;;;;;;;;;4385144;32;419957;-82
2023/11/21 12:52:59;;;;;;;18.73;14.40;;;;;;;;;;4400596;32;317601;-83
2023/11/21 12:55:32;;;;;;;42.73;17.37;;;;;;;;;;4385437;32;417202;-83
2023/11/21 12:58:08;;;;;;;72.10;38.17;;;;;;;;;;4389412;32;317723;-84
2023/11/21 13:00:38;;;;;;;32.97;19.50;;;;;;;;;;4400276;32;317533;-83
2023/11/21 13:03:07;;;;;;;23.73;15.20;;;;;;;;;;4389101;32;317820;-84
2023/11/21 13:05:38;;;;;;;31.03;18.90;;;;;;;;;;4399376;32;317740;-83
2023/11/21 13:08:09;;;;;;;32.90;18.97;;;;;;;;;;4389410;32;317686;-83
2023/11/21 13:10:39;;;;;;;25.57;17.07;;;;;;;;;;4398963;32;317977;-82
2023/11/21 13:13:09;;;;;;;31.97;15.97;;;;;;;;;;4387685;32;317641;-83
2023/11/21 13:15:41;;;;;;;40.23;20.70;;;;;;;;;;4397965;32;317703;-83
2023/11/21 13:18:10;;;;;;;37.43;20.80;;;;;;;;;;4388567;32;317783;-83
2023/11/21 13:20:38;;;;;;;40.10;22.67;;;;;;;;;;4398995;32;317790;-84
2023/11/21 13:23:11;;;;;;;48.60;24.40;;;;;;;;;;4388720;32;338579;-84
2023/11/21 13:25:41;;;;;;;39.07;23.00;;;;;;;;;;4400590;32;318806;-84
2023/11/21 13:28:10;;;;;;;46.53;25.07;;;;;;;;;;4391723;32;318464;-83
2023/11/21 13:30:39;;;;;;;41.97;23.60;;;;;;;;;;4399755;32;317799;-85
2023/11/21 13:33:08;;;;;;;50.73;26.07;;;;;;;;;;4391814;32;317892;-85
2023/11/21 13:35:41;;;;;;;41.33;24.00;;;;;;;;;;4400437;32;352903;-86
2023/11/21 13:38:12;;;;;;;36.47;23.43;;;;;;;;;;4388893;32;317618;-87
2023/11/21 13:40:46;;;;;;;38.33;22.97;;;;;;;;;;4402537;32;316743;-85
2023/11/21 13:43:15;;;;;;;46.03;22.60;;;;;;;;;;4391870;32;318365;-88
2023/11/21 13:45:44;;;;;;;37.87;23.33;;;;;;;;;;4400605;32;318009;-86
2023/11/21 13:48:13;;;;;;;40.70;24.17;;;;;;;;;;4392312;32;317765;-84
2023/11/21 13:50:48;;;;;;;53.40;25.40;;;;;;;;;;4402798;32;318360;-83
2023/11/21 13:53:21;;;;;;;54.03;30.50;;;;;;;;;;4388725;32;355168;-83
2023/11/21 13:55:50;;;;;;;50.90;33.20;;;;;;;;;;4402678;32;317793;-83
2023/11/21 13:58:24;;;;;;;50.10;33.67;;;;;;;;;;4392434;32;317978;-86
2023/11/21 14:00:56;;;;;;;53.23;34.00;;;;;;;;;;4400646;32;317727;-83
2023/11/21 14:03:32;;;;;;;52.27;34.77;;;;;;;;;;4381364;32;387071;-85
2023/11/21 14:06:14;;;;;;;60.97;33.70;;;;;;;;;;4387598;32;332251;-84
2023/11/21 14:09:07;;;;;;;61.10;36.10;;;;;;;;;;4401559;32;317703;-84
2023/11/21 14:11:56;;;;;;;58.40;35.43;;;;;;;;;;4386279;32;419854;-85
2023/11/21 14:14:28;;;;;;;69.53;37.13;;;;;;;;;;4386176;32;418350;-83